This is the latest recevied weather packets stored in our database for station/object KB0RPJ. If no packets are shown the sender has not sent any weather packets the latest 1 day(s).
| Time | Temp. | Humidity | Pressure | Rain* | Wind** | Luminosity | Snow |
|---|---|---|---|---|---|---|---|
| 1777995605 | 11.11° C | 59% | 1011.7 hPa | 0 mm | 0.45 m/s, 33° | 189 W/m² | - |
| 1777995305 | 11.11° C | 57% | 1011.6 hPa | 0 mm | 0 m/s | 160 W/m² | - |
| 1777995005 | 11.11° C | 58% | 1011.6 hPa | 0 mm | 0.45 m/s, 98° | 136 W/m² | - |
| 1777994705 | 11.11° C | 58% | 1011.6 hPa | 0 mm | 0 m/s | 103 W/m² | - |
| 1777994427 | 11.11° C | 59% | 1011.4 hPa | 0 mm | 0.45 m/s, 335° | 83 W/m² | - |
| 1777994105 | 11.11° C | 60% | 1011.1 hPa | 0 mm | 0.89 m/s, 56° | 80 W/m² | - |
| 1777993806 | 11.11° C | 58% | 1011 hPa | 0 mm | 0.45 m/s, 31° | 92 W/m² | - |
| 1777993506 | 11.11° C | 58% | 1011 hPa | 0 mm | 0.45 m/s, 52° | 92 W/m² | - |
| 1777993204 | 11.11° C | 60% | 1010.9 hPa | 0 mm | 0.89 m/s, 26° | 99 W/m² | - |
| 1777992905 | 11.11° C | 60% | 1010.9 hPa | 0 mm | 1.34 m/s, 27° | 102 W/m² | - |
| 1777992608 | 11.11° C | 60% | 1010.9 hPa | 0 mm | 0.89 m/s, 36° | 103 W/m² | - |
| 1777992304 | 11.11° C | 60% | 1010.9 hPa | 0 mm | 0.45 m/s, 23° | 113 W/m² | - |
| 1777992005 | 11.11° C | 61% | 1010.7 hPa | 0 mm | 0.89 m/s, 24° | 118 W/m² | - |
| 1777991704 | 11.11° C | 61% | 1010.6 hPa | 0 mm | 0.45 m/s, 24° | 134 W/m² | - |
| 1777991404 | 11.11° C | 61% | 1010.6 hPa | 0 mm | 1.34 m/s, 28° | 155 W/m² | - |
| 1777991105 | 11.11° C | 62% | 1010.6 hPa | 0 mm | 0.89 m/s, 25° | 165 W/m² | - |
| 1777990805 | 11.11° C | 63% | 1010.8 hPa | 0 mm | 0 m/s | 144 W/m² | - |
| 1777990504 | 10.56° C | 64% | 1010.9 hPa | 0 mm | 0 m/s | 123 W/m² | - |
| 1777990205 | 10.56° C | 65% | 1011 hPa | 0 mm | 0 m/s | 107 W/m² | - |
| 1777989904 | 10.56° C | 65% | 1011.3 hPa | 0 mm | 0 m/s | 81 W/m² | - |
| 1777989604 | 10.56° C | 64% | 1011.6 hPa | 0 mm | 0 m/s | 59 W/m² | - |
| 1777989305 | 10.56° C | 64% | 1011.7 hPa | 0 mm | 0.45 m/s, 300° | 45 W/m² | - |
| 1777989005 | 11.11° C | 65% | 1011.6 hPa | 0 mm | 0.45 m/s, 258° | 39 W/m² | - |
| 1777988705 | 11.11° C | 65% | 1011.3 hPa | 0 mm | 0 m/s | 29 W/m² | - |
| 1777988406 | 11.11° C | 63% | 1010.9 hPa | 0 mm | 0 m/s | 28 W/m² | - |
* Rain latest hour (hover to see other rain measurements)
** Current wind speed in m/s (hover to see current wind gust speed)